Latest Weather Observations for Wilsons Promontory

IDV60801

Issued at 10:32 am EDT Sunday 4 December 2016 (issued every 30 minutes, with the page automatically refreshed every 10 minutes)

About weather observations | Map of weather stations | Latest weather observations for VIC | Other Formats
Station Details ID: 085096 Name: WILSONS PROMONTORY LIGHTHOUSE Lat: -39.13 Lon: 146.42 Height: 95.0 m
Data from the previous 72 hours. | See also: Recent months at Wilsons Promontory
Date/Time
EDT
Temp
°C
App
Temp
°C
Dew
Point
°C
Rel
Hum
%
Delta-T
°C
Wind Press
QNH
hPa
Press
MSL
hPa
Rain since
9am
mm
Dir  Spd
km/h
Gust
km/h
Spd
kts
Gust
kts
04/10:30am 17.8 12.5 14.1 79 2.1 NNE 35 43 19 23 1011.0 - 0.0
04/10:00am 17.9 13.0 14.2 79 2.1 NNE 33 43 18 23 1011.1 - 0.0
04/09:00am 16.9 12.4 13.8 82 1.8 NNE 30 41 16 22 1011.4 1011.3 0.0
04/08:30am 16.4 11.8 13.5 83 1.6 NNE 30 43 16 23 1011.6 - 0.0
04/08:00am 15.5 10.8 13.3 87 1.2 NNE 30 41 16 22 1011.8 - 0.0
04/07:30am 15.2 10.4 12.9 86 1.3 NNE 30 41 16 22 1012.0 - 0.0
04/07:00am 15.1 9.8 12.6 85 1.4 NNE 32 41 17 22 1012.0 - 0.0
04/06:30am 15.0 8.8 12.5 85 1.4 NNE 37 46 20 25 1012.0 - 0.0
04/06:00am 14.5 8.2 12.2 86 1.3 NNE 37 48 20 26 1012.2 1012.1 0.0
04/05:30am 14.2 8.5 11.9 86 1.2 NNE 33 43 18 23 1012.3 - 0.0
04/05:00am 14.1 8.4 11.8 86 1.2 NNE 33 43 18 23 1012.1 - 0.0
04/04:30am 14.0 7.9 11.7 86 1.2 NNE 35 46 19 25 1012.1 - 0.0
04/04:00am 13.9 7.8 11.6 86 1.2 NNE 35 46 19 25 1012.0 - 0.0
04/03:30am 13.7 8.4 11.2 85 1.3 NNE 30 41 16 22 1012.5 - 0.0
04/03:00am 13.5 8.4 10.7 83 1.5 NNE 28 37 15 20 1012.9 1012.8 0.0
04/02:30am 13.5 8.3 10.3 81 1.7 NNE 28 39 15 21 1013.2 - 0.0
04/02:00am 13.3 8.0 9.7 79 1.9 NNE 28 39 15 21 1013.5 - 0.0
04/01:30am 13.2 8.2 9.6 79 1.8 NNE 26 37 14 20 1014.0 - 0.0
04/01:00am 13.2 8.2 9.5 78 1.9 NNE 26 35 14 19 1014.4 - 0.0
04/12:30am 13.2 7.7 9.3 77 2.0 NNE 28 37 15 20 1014.9 - 0.0
04/12:00am 13.2 8.4 8.9 75 2.2 NNE 24 33 13 18 1015.2 1015.1 0.0
 
Date/Time
EDT
Temp
°C
App
Temp
°C
Dew
Point
°C
Rel
Hum
%
Delta-T
°C
Wind Press
QNH
hPa
Press
MSL
hPa
Rain since
9am
mm
Dir  Spd
km/h
Gust
km/h
Spd
kts
Gust
kts
03/11:30pm 13.2 7.9 8.5 73 2.4 NNE 26 35 14 19 1015.4 - 0.0
03/11:00pm 13.1 7.7 8.0 71 2.5 NNE 26 32 14 17 1015.6 - 0.0
03/10:30pm 13.1 8.0 7.5 69 2.7 NNE 24 30 13 16 1015.8 - 0.0
03/10:00pm 13.0 8.7 7.7 70 2.6 NNE 20 26 11 14 1016.0 - 0.0
03/09:30pm 13.0 9.2 7.5 69 2.7 NNE 17 22 9 12 1015.9 - 0.0
03/09:00pm 13.2 9.5 7.9 70 2.6 NNE 17 24 9 13 1016.0 1016.0 0.0
03/08:30pm 13.3 9.9 7.5 68 2.9 NNE 15 20 8 11 1016.1 - 0.0
03/08:00pm 14.1 11.4 7.4 64 3.3 NE 11 17 6 9 1016.0 - 0.0
03/07:30pm 14.1 11.3 6.9 62 3.5 ENE 11 15 6 8 1015.8 - 0.0
03/07:00pm 14.2 11.8 6.8 61 3.6 E 9 11 5 6 1015.9 - 0.0
03/06:30pm 14.5 12.1 6.8 60 3.8 ESE 9 11 5 6 1015.7 - 0.0
03/06:00pm 14.7 12.3 6.8 59 3.9 SE 9 13 5 7 1015.3 1015.2 0.0
03/05:30pm 15.2 12.8 7.0 58 4.0 SSE 9 15 5 8 1015.5 - 0.0
03/05:00pm 15.8 13.4 6.8 55 4.4 S 9 13 5 7 1015.6 - 0.0
03/04:30pm 15.7 13.9 7.0 56 4.3 WSW 6 11 3 6 1015.7 - 0.0
03/04:00pm 15.3 13.4 6.8 57 4.2 WNW 6 13 3 7 1015.6 - 0.0
03/03:30pm 15.4 13.5 6.9 57 4.2 WNW 6 9 3 5 1015.5 - 0.0
03/03:00pm 15.8 14.1 7.6 58 4.1 W 6 11 3 6 1015.9 1015.8 0.0
03/02:30pm 15.6 13.7 6.9 56 4.3 NW 6 11 3 6 1016.0 - 0.0
03/02:00pm 15.7 13.7 7.0 56 4.3 W 7 13 4 7 1016.0 - 0.0
03/01:30pm 16.5 14.6 7.4 55 4.6 W 7 17 4 9 1016.3 - 0.0
03/01:00pm 16.3 14.3 7.0 54 4.6 WSW 7 13 4 7 1016.5 - 0.0
03/12:30pm 16.0 13.7 7.5 57 4.3 WSW 9 19 5 10 1016.6 - 0.0
03/12:00pm 15.8 13.5 7.3 57 4.2 SW 9 17 5 9 1016.7 1016.6 0.0
03/11:30am 16.0 14.2 7.0 55 4.5 WSW 6 11 3 6 1016.6 - 0.0
03/11:00am 15.7 13.9 7.0 56 4.3 WSW 6 9 3 5 1016.6 - 0.0
03/10:30am 16.1 13.6 8.1 59 4.1 S 11 15 6 8 1016.5 - 0.0
03/10:00am 15.9 14.1 7.9 59 4.0 S 7 13 4 7 1016.5 - 0.0
03/09:30am 16.1 14.9 8.1 59 4.1 S 4 9 2 5 1016.6 - 0.0
03/09:00am 15.4 14.3 6.9 57 4.2 SSW 2 7 1 4 1016.4 1016.3 0.0
03/08:30am 15.5 14.5 7.5 59 4.0 SSW 2 9 1 5 1016.1 - 0.0
03/08:00am 14.9 12.5 7.2 60 3.8 SW 9 13 5 7 1015.9 - 0.0
03/07:30am 13.7 11.3 7.0 64 3.3 WSW 9 13 5 7 1015.6 - 0.0
03/07:00am 13.9 12.9 7.4 65 3.2 WNW 2 6 1 3 1015.3 - 0.0
03/06:30am 12.6 10.2 7.1 69 2.7 W 9 11 5 6 1015.2 - 0.0
03/06:00am 12.2 9.0 6.7 69 2.6 W 13 15 7 8 1015.0 1014.9 0.0
03/05:30am 12.3 8.7 6.6 68 2.7 W 15 20 8 11 1014.7 - 0.0
03/05:00am 12.2 8.2 6.7 69 2.6 W 17 20 9 11 1014.4 - 0.0
03/04:30am 12.1 8.6 7.0 71 2.5 W 15 20 8 11 1014.3 - 0.0
03/04:00am 12.1 8.6 7.2 72 2.4 W 15 20 8 11 1014.4 - 0.0
03/03:30am 12.4 8.5 7.3 71 2.5 W 17 22 9 12 1014.5 - 0.0
03/03:00am 13.0 8.7 7.2 68 2.8 WSW 19 30 10 16 1014.7 1014.6 0.0
03/02:30am 13.0 9.6 7.7 70 2.6 W 15 32 8 17 1014.9 - 0.0
03/02:00am 13.2 8.8 7.4 68 2.8 W 20 33 11 18 1015.0 - 0.0
03/01:30am 13.1 7.7 7.8 70 2.6 W 26 35 14 19 1014.9 - 0.0
03/01:00am 13.4 7.2 8.0 70 2.7 W 30 39 16 21 1014.7 - 0.0
03/12:30am 13.0 7.5 7.7 70 2.6 W 26 35 14 19 1015.0 - 0.0
03/12:00am 13.1 7.6 7.5 69 2.7 W 26 35 14 19 1015.2 1015.1 0.0
 
Date/Time
EDT
Temp
°C
App
Temp
°C
Dew
Point
°C
Rel
Hum
%
Delta-T
°C
Wind Press
QNH
hPa
Press
MSL
hPa
Rain since
9am
mm
Dir  Spd
km/h
Gust
km/h
Spd
kts
Gust
kts
02/11:30pm 13.1 6.4 7.5 69 2.7 W 32 43 17 23 1015.1 - 0.0
02/11:00pm 13.3 8.3 8.0 70 2.6 W 24 33 13 18 1015.3 - 0.0
02/10:30pm 13.3 7.4 7.5 68 2.9 W 28 41 15 22 1015.2 - 0.0
02/10:00pm 13.7 6.9 7.7 67 3.0 W 33 44 18 24 1015.0 - 0.0
02/09:30pm 13.8 7.1 7.3 65 3.2 W 32 41 17 22 1014.7 - 0.0
02/09:00pm 13.8 8.9 6.9 63 3.4 W 22 37 12 20 1014.4 1014.3 0.0
02/08:30pm 13.7 7.7 7.0 64 3.3 WSW 28 41 15 22 1014.2 - 0.0
02/08:00pm 14.0 5.5 7.1 63 3.4 WSW 41 46 22 25 1013.7 - 0.0
02/07:30pm 14.2 6.0 6.6 60 3.7 WSW 39 46 21 25 1013.2 - 0.0
02/07:00pm 14.4 5.1 7.7 64 3.3 WSW 46 52 25 28 1012.7 - 0.0
02/06:30pm 14.3 5.5 8.0 66 3.2 WSW 44 54 24 29 1012.5 - 0.0
02/06:00pm 14.5 6.3 8.0 65 3.3 WSW 41 54 22 29 1012.4 1012.3 0.0
02/05:30pm 14.6 6.4 8.3 66 3.2 W 41 56 22 30 1012.2 - 0.0
02/05:00pm 14.6 5.4 9.4 71 2.7 WSW 48 59 26 32 1012.0 - 0.0
02/04:30pm 14.7 4.8 9.7 72 2.6 WSW 52 59 28 32 1011.8 - 0.0
02/04:19pm 14.9 7.4 9.5 70 2.8 W 39 57 21 31 1011.7 - 0.0
02/04:00pm 16.7 8.6 8.7 59 4.1 W 41 54 22 29 1011.7 - 0.0
02/03:30pm 16.5 8.9 9.0 61 3.9 W 39 50 21 27 1011.6 - 0.0
02/03:00pm 16.4 9.4 10.0 66 3.4 W 37 50 20 27 1011.7 1011.6 0.0
02/02:37pm 14.7 6.9 9.7 72 2.6 WSW 41 59 22 32 1011.4 - 0.0
02/02:30pm 14.5 5.0 9.9 74 2.4 WSW 50 59 27 32 1011.4 - 0.0
02/02:00pm 14.9 8.8 10.3 74 2.4 W 33 52 18 28 1011.3 - 0.0
02/01:41pm 14.9 8.9 10.7 76 2.2 W 33 54 18 29 1011.1 - 0.0
02/01:30pm 15.1 9.6 10.5 74 2.4 W 30 46 16 25 1011.2 - 0.0
02/01:01pm 15.2 9.5 9.8 70 2.8 W 30 48 16 26 1010.8 - 0.0
02/01:00pm 15.3 9.6 9.9 70 2.8 W 30 43 16 23 1010.9 - 0.0
02/12:30pm 14.7 9.5 10.1 74 2.4 W 28 56 15 30 1010.7 - 0.0
02/12:07pm 14.3 7.2 10.9 80 1.8 W 39 57 21 31 1010.6 - 0.0
02/12:00pm 14.4 6.2 10.4 77 2.1 W 44 57 24 31 1010.3 1010.2 0.0
02/11:40am 16.6 8.5 10.9 69 3.1 W 44 63 24 34 1010.2 - 0.0
02/11:30am 16.4 8.3 10.7 69 3.0 W 44 61 24 33 1010.0 - 0.0
02/11:00am 16.1 9.9 10.2 68 3.1 W 33 54 18 29 1009.8 - 0.0
02/10:30am 16.8 11.4 10.9 68 3.2 W 30 50 16 27 1009.6 - 0.0
02/10:09am 16.1 8.8 10.2 68 3.1 W 39 57 21 31 1009.5 - 0.0
02/10:00am 15.8 7.5 9.5 66 3.3 W 43 57 23 31 1009.2 - 0.0
02/09:30am 15.7 10.2 10.7 72 2.7 W 30 48 16 26 1009.2 - 0.0
02/09:28am 15.7 10.2 10.7 72 2.7 W 30 48 16 26 1009.2 - 0.0
02/09:00am 14.9 8.2 10.9 77 2.1 W 37 54 20 29 1009.0 1008.9 0.0
02/08:57am 14.8 8.4 10.8 77 2.1 W 35 54 19 29 1009.0 - 0.0
02/08:30am 14.5 9.4 10.7 78 2.0 W 28 39 15 21 1008.7 - 0.0
02/08:00am 14.3 9.9 10.5 78 2.0 W 24 37 13 20 1008.5 - 0.0
02/07:30am 14.3 10.0 10.7 79 1.9 W 24 35 13 19 1008.3 - 0.0
02/07:00am 14.2 9.9 10.6 79 1.9 W 24 37 13 20 1008.0 - 0.0
02/06:30am 14.5 9.8 10.5 77 2.1 W 26 33 14 18 1007.6 - 0.0
02/06:00am 14.1 9.2 11.3 83 1.5 W 28 37 15 20 1007.2 1007.0 0.0
02/05:30am 14.0 8.2 10.8 81 1.7 W 32 44 17 24 1006.7 - 0.0
02/05:00am 13.9 8.0 11.2 84 1.4 W 33 43 18 23 1006.4 - 0.0
02/04:30am 13.9 7.6 11.1 83 1.5 W 35 52 19 28 1006.1 - 0.0
02/04:00am 13.9 8.2 11.1 83 1.5 W 32 48 17 26 1005.8 - 0.0
02/03:30am 13.8 8.9 11.3 85 1.3 WNW 28 39 15 21 1005.9 - 0.0
02/03:00am 13.9 9.0 11.2 84 1.4 WNW 28 39 15 21 1006.0 1005.8 0.0
02/02:30am 14.1 9.5 11.1 82 1.6 WNW 26 39 14 21 1006.1 - 0.0
02/02:00am 14.2 11.5 10.4 78 2.0 WNW 15 22 8 12 1006.4 - 0.0
02/01:30am 14.2 12.3 10.4 78 2.0 WNW 11 20 6 11 1006.6 - 0.0
02/01:00am 14.5 13.0 10.5 77 2.1 WSW 9 13 5 7 1006.7 - 0.0
02/12:30am 13.9 13.3 10.5 80 1.8 ENE 4 11 2 6 1007.0 - 0.0
02/12:00am 13.8 13.7 10.8 82 1.6 W 2 11 1 6 1007.2 1007.0 0.0
 
Date/Time
EDT
Temp
°C
App
Temp
°C
Dew
Point
°C
Rel
Hum
%
Delta-T
°C
Wind Press
QNH
hPa
Press
MSL
hPa
Rain since
9am
mm
Dir  Spd
km/h
Gust
km/h
Spd
kts
Gust
kts
01/11:30pm 13.8 11.6 10.8 82 1.6 WNW 13 17 7 9 1007.1 - 0.0
01/11:00pm 13.9 12.8 10.5 80 1.8 NW 7 13 4 7 1007.1 - 0.0
01/10:30pm 14.1 13.2 10.7 80 1.8 WNW 6 13 3 7 1007.1 - 0.0
01/10:00pm 14.2 11.1 10.4 78 2.0 WNW 17 20 9 11 1007.2 - 0.0
01/09:30pm 14.5 11.0 10.1 75 2.3 WNW 19 24 10 13 1007.0 - 0.0
01/09:00pm 14.5 10.9 10.5 77 2.1 W 20 24 11 13 1006.6 1006.4 0.0
01/08:30pm 15.0 11.5 10.8 76 2.2 W 20 28 11 15 1006.4 - 0.0
01/08:00pm 15.6 11.1 11.4 76 2.3 W 26 32 14 17 1006.1 - 0.0
01/07:30pm 15.4 10.9 11.4 77 2.2 W 26 32 14 17 1005.3 - 0.0
01/07:00pm 15.5 10.2 11.3 76 2.3 W 30 35 16 19 1004.9 - 0.0
01/06:30pm 15.8 9.9 11.0 73 2.6 W 33 39 18 21 1004.8 - 0.0
01/06:00pm 16.5 11.7 11.6 73 2.7 W 28 35 15 19 1004.7 1004.6 0.0
01/05:30pm 15.5 11.0 11.5 77 2.2 W 26 33 14 18 1004.8 - 0.0
01/05:00pm 16.0 12.2 11.2 73 2.6 W 22 28 12 15 1005.3 - 0.0
01/04:30pm 17.0 12.5 11.3 69 3.1 W 26 35 14 19 1005.8 - 0.0
01/04:00pm 18.0 14.9 12.2 69 3.2 W 20 32 11 17 1006.1 - 0.0
01/03:30pm 17.6 13.8 12.5 72 2.8 W 24 33 13 18 1006.3 - 0.0
01/03:00pm 17.6 13.1 12.5 72 2.9 W 28 37 15 20 1006.4 1006.2 0.0
01/02:00pm 17.1 11.5 12.0 72 2.8 W 33 48 18 26 1006.4 - 0.0
01/01:30pm 17.1 10.8 12.2 73 2.7 W 37 56 20 30 1006.6 - 0.0
01/01:29pm 17.0 10.6 12.1 73 2.7 W 37 56 20 30 1006.6 - 0.0
01/01:00pm 16.8 9.5 11.5 71 2.9 W 41 50 22 27 1006.6 - 0.0
01/12:30pm 17.1 10.1 12.4 74 2.6 W 41 52 22 28 1006.7 - 0.0
01/12:00pm 16.5 9.0 12.8 79 2.1 W 44 57 24 31 1006.7 1006.5 0.0
01/11:30am 16.4 9.6 13.1 81 1.8 W 41 61 22 33 1006.8 - 0.0
01/11:00am 17.3 13.2 13.8 80 2.0 WNW 28 54 15 29 1006.7 - 0.0

Other Formats:

Comma delimited format used in spreadsheet applications
http://www.bom.gov.au/fwo/IDV60801/IDV60801.94893.axf

JavaScript Object Notation format (JSON) in row-major order
http://www.bom.gov.au/fwo/IDV60801/IDV60801.94893.json